Terminal Aerodrome Forecast
Issued by NWS

Home | Current Version | Previous Version | Text Only | Print | Product List | Glossary On
Versions: 1 2 3 4 5 6 7 8 9 10 11 12 13
000
FTUS46 KPDT 291100
TAFBDN
TAF
KBDN 291124Z 2912/3012 22006KT P6SM FEW150 SCT200
     FM292000 32008KT P6SM FEW100 SCT200
     FM292200 32010KT P6SM SCT100 SCT200
     FM300800 VRB04KT P6SM SCT200=

USA.gov is the U.S. government's official web portal to all federal, state and local government web resources and services.